createdAt,value
2022-11-01T00:02:04.774Z,27.83
2022-11-01T00:04:32.376Z,28.55
2022-11-01T00:07:00.016Z,24.77
2022-11-01T00:09:27.563Z,24.00
2022-11-01T00:11:55.627Z,23.40
2022-11-01T00:14:23.212Z,23.50
2022-11-01T00:16:50.856Z,22.23
2022-11-01T00:19:18.510Z,21.77
2022-11-01T00:21:46.219Z,21.50
2022-11-01T00:24:13.766Z,22.27
2022-11-01T00:26:41.822Z,21.73
2022-11-01T00:29:09.582Z,21.10
2022-11-01T00:31:37.147Z,21.20
2022-11-01T00:34:06.168Z,19.23
2022-11-01T00:36:35.222Z,18.88
2022-11-01T00:39:03.621Z,17.85
2022-11-01T00:41:31.541Z,14.55
2022-11-01T00:43:59.608Z,14.55
2022-11-01T00:46:27.480Z,14.38
2022-11-01T00:48:54.881Z,13.95
2022-11-01T00:51:22.676Z,13.30
2022-11-01T00:53:50.800Z,14.05
2022-11-01T00:56:18.361Z,15.02
2022-11-01T00:58:45.979Z,14.68
2022-11-01T01:01:13.575Z,13.75
2022-11-01T01:03:41.593Z,14.57
2022-11-01T01:06:09.056Z,14.15
2022-11-01T01:08:36.688Z,13.60
2022-11-01T01:11:04.326Z,14.70
2022-11-01T01:13:32.122Z,12.98
2022-11-01T01:15:59.638Z,13.95
2022-11-01T01:18:27.607Z,14.45
2022-11-01T01:21:05.429Z,14.45
2022-11-01T01:23:33.342Z,15.05
2022-11-01T01:26:06.335Z,13.98
2022-11-01T01:28:34.239Z,10.80
2022-11-01T01:31:07.314Z,11.80
2022-11-01T01:33:35.406Z,11.32
2022-11-01T01:36:04.576Z,10.52
2022-11-01T01:38:33.028Z,9.75
2022-11-01T01:41:20.563Z,9.52
2022-11-01T01:43:48.233Z,8.63
2022-11-01T01:46:15.792Z,8.07
2022-11-01T01:48:46.786Z,7.47
2022-11-01T01:51:17.784Z,7.70
2022-11-01T01:53:51.377Z,8.15
2022-11-01T01:56:32.356Z,9.05
2022-11-01T01:59:08.229Z,7.50
2022-11-01T02:01:39.248Z,8.50
2022-11-01T02:04:15.503Z,7.30
2022-11-01T02:06:43.493Z,7.60
2022-11-01T02:09:11.556Z,6.95
2022-11-01T02:11:39.189Z,6.80
2022-11-01T02:14:07.467Z,6.80
2022-11-01T02:16:53.625Z,8.20
2022-11-01T02:19:24.212Z,8.38
2022-11-01T02:22:08.567Z,10.02
2022-11-01T02:24:54.676Z,11.23
2022-11-01T02:27:49.271Z,12.35
2022-11-01T02:30:20.483Z,9.55
2022-11-01T02:33:00.348Z,12.02
2022-11-01T02:35:52.849Z,11.20
2022-11-01T02:38:41.937Z,10.82
2022-11-01T02:41:20.499Z,11.35
2022-11-01T02:44:04.860Z,8.65
2022-11-01T02:46:57.768Z,11.32
2022-11-01T02:49:30.751Z,12.10
2022-11-01T02:52:00.485Z,9.90
2022-11-01T02:54:32.597Z,11.80
2022-11-01T02:57:18.285Z,12.15
2022-11-01T02:59:47.962Z,11.60
2022-11-01T03:02:39.751Z,10.20
2022-11-01T03:05:21.475Z,9.80
2022-11-01T03:07:52.993Z,8.95
2022-11-01T03:10:23.294Z,8.02
2022-11-01T03:13:17.581Z,9.40
2022-11-01T03:15:56.889Z,9.98
2022-11-01T03:18:36.334Z,8.27
2022-11-01T03:21:19.842Z,7.75
2022-11-01T03:24:03.161Z,8.25
2022-11-01T03:26:35.066Z,7.65
2022-11-01T03:29:08.374Z,7.43
2022-11-01T03:31:39.021Z,5.63
2022-11-01T03:34:13.568Z,6.57
2022-11-01T03:36:51.413Z,5.80
2022-11-01T03:39:23.760Z,5.70
2022-11-01T03:41:56.749Z,6.20
2022-11-01T03:44:26.660Z,6.45
2022-11-01T03:46:54.261Z,4.68
2022-11-01T03:49:21.792Z,3.88
2022-11-01T03:51:49.792Z,3.85
2022-11-01T03:54:17.604Z,5.40
2022-11-01T03:56:45.056Z,4.13
2022-11-01T03:59:12.773Z,4.80
2022-11-01T04:01:40.447Z,4.60
2022-11-01T04:04:08.130Z,4.10
2022-11-01T04:06:36.039Z,4.25
2022-11-01T04:09:03.924Z,4.40
2022-11-01T04:11:31.581Z,3.42
2022-11-01T04:14:18.232Z,3.53
2022-11-01T04:17:04.662Z,3.15
2022-11-01T04:19:50.966Z,2.05
2022-11-01T04:22:20.747Z,2.03
2022-11-01T04:24:51.624Z,1.58
2022-11-01T04:27:19.004Z,1.33
2022-11-01T04:29:46.509Z,0.98
2022-11-01T04:32:14.447Z,1.00
2022-11-01T04:34:44.845Z,0.80
2022-11-01T04:37:12.721Z,0.80
2022-11-01T04:39:40.360Z,0.80
2022-11-01T04:42:07.923Z,0.90
2022-11-01T04:44:35.861Z,1.00
2022-11-01T04:47:03.770Z,1.15
2022-11-01T04:49:31.542Z,1.00
2022-11-01T04:51:58.956Z,0.90
2022-11-01T04:54:31.461Z,1.10
2022-11-01T04:56:59.134Z,1.40
2022-11-01T04:59:26.636Z,1.38
2022-11-01T05:01:54.644Z,1.58
2022-11-01T05:04:22.108Z,1.67
2022-11-01T05:06:49.582Z,1.50
2022-11-01T05:09:17.482Z,1.30
2022-11-01T05:11:44.958Z,2.08
2022-11-01T05:14:12.595Z,1.33
2022-11-01T05:16:40.153Z,2.13
2022-11-01T05:19:08.234Z,1.30
2022-11-01T05:21:36.021Z,1.48
2022-11-01T05:24:03.871Z,1.88
2022-11-01T05:26:31.700Z,1.60
2022-11-01T05:29:02.274Z,1.33
2022-11-01T05:31:37.352Z,1.98
2022-11-01T05:34:04.902Z,1.40
2022-11-01T05:36:32.364Z,1.80
2022-11-01T05:39:00.232Z,1.50
2022-11-01T05:41:27.799Z,1.75
2022-11-01T05:43:55.709Z,1.45
2022-11-01T05:46:23.485Z,2.67
2022-11-01T05:48:51.320Z,1.40
2022-11-01T05:51:19.121Z,1.98
2022-11-01T05:53:49.563Z,1.75
2022-11-01T05:56:18.316Z,1.70
2022-11-01T05:58:47.298Z,1.80
2022-11-01T06:01:17.163Z,1.80
2022-11-01T06:03:44.740Z,2.05
2022-11-01T06:06:12.650Z,2.55
2022-11-01T06:08:40.096Z,1.80
2022-11-01T06:11:07.651Z,2.10
2022-11-01T06:13:35.659Z,1.80
2022-11-01T06:16:05.329Z,1.48
2022-11-01T06:18:33.104Z,2.35
2022-11-01T06:21:00.871Z,2.35
2022-11-01T06:23:28.448Z,1.70
2022-11-01T06:26:05.962Z,3.30
2022-11-01T06:28:33.842Z,2.20
2022-11-01T06:31:02.457Z,2.00
2022-11-01T06:33:31.040Z,2.63
2022-11-01T06:35:59.074Z,2.63
2022-11-01T06:38:26.558Z,2.83
2022-11-01T06:40:54.068Z,2.33
2022-11-01T06:43:22.465Z,3.35
2022-11-01T06:45:49.958Z,2.53
2022-11-01T06:48:17.737Z,2.60
2022-11-01T06:50:45.430Z,2.97
2022-11-01T06:53:12.899Z,2.95
2022-11-01T06:55:40.430Z,2.60
2022-11-01T06:58:09.135Z,3.33
2022-11-01T07:00:36.767Z,3.28
2022-11-01T07:03:07.323Z,4.05
2022-11-01T07:05:37.477Z,4.25
2022-11-01T07:08:12.940Z,2.85
2022-11-01T07:10:43.120Z,2.60
2022-11-01T07:13:12.817Z,2.63
2022-11-01T07:15:41.277Z,2.67
2022-11-01T07:18:09.525Z,2.15
2022-11-01T07:20:43.804Z,3.20
2022-11-01T07:23:15.490Z,2.47
2022-11-01T07:25:43.125Z,2.33
2022-11-01T07:28:11.287Z,2.97
2022-11-01T07:30:39.370Z,2.95
2022-11-01T07:33:07.287Z,2.90
2022-11-01T07:35:35.802Z,3.05
2022-11-01T07:38:06.417Z,3.00
2022-11-01T07:40:39.778Z,4.20
2022-11-01T07:43:07.801Z,2.22
2022-11-01T07:45:37.110Z,3.53
2022-11-01T07:48:10.728Z,2.60
2022-11-01T07:50:40.054Z,2.53
2022-11-01T07:53:07.712Z,2.20
2022-11-01T07:55:35.948Z,3.33
2022-11-01T07:58:04.805Z,2.80
2022-11-01T08:03:08.966Z,2.28
2022-11-01T08:05:36.912Z,2.60
2022-11-01T08:08:05.944Z,2.67
2022-11-01T08:10:34.950Z,2.70
2022-11-01T08:13:13.122Z,2.97
2022-11-01T08:15:41.311Z,2.78
2022-11-01T08:18:08.996Z,2.40
2022-11-01T08:20:36.784Z,2.70
2022-11-01T08:23:05.519Z,2.50
2022-11-01T08:25:34.816Z,2.53
2022-11-01T08:28:11.453Z,2.58
2022-11-01T08:30:40.284Z,2.60
2022-11-01T08:33:07.894Z,3.95
2022-11-01T08:35:35.901Z,2.22
2022-11-01T08:38:04.449Z,2.45
2022-11-01T08:40:33.228Z,2.33
2022-11-01T08:43:01.346Z,2.30
2022-11-01T08:45:29.560Z,3.05
2022-11-01T08:48:00.718Z,3.42
2022-11-01T08:50:29.167Z,2.88
2022-11-01T08:52:56.698Z,1.77
2022-11-01T08:55:24.659Z,2.30
2022-11-01T08:57:52.498Z,2.13
2022-11-01T09:00:21.418Z,2.55
2022-11-01T09:02:49.055Z,2.33
2022-11-01T09:05:16.750Z,2.50
2022-11-01T09:07:44.305Z,1.75
2022-11-01T09:10:11.941Z,2.17
2022-11-01T09:15:08.593Z,1.98
2022-11-01T09:17:36.516Z,2.00
2022-11-01T09:20:04.741Z,1.92
2022-11-01T09:22:32.756Z,1.60
2022-11-01T09:25:00.222Z,1.73
2022-11-01T09:27:27.846Z,1.77
2022-11-01T09:29:55.376Z,2.08
2022-11-01T09:32:22.923Z,1.85
2022-11-01T09:34:50.463Z,3.00
2022-11-01T09:37:18.196Z,1.70
2022-11-01T09:39:45.738Z,2.53
2022-11-01T09:42:26.348Z,1.83
2022-11-01T09:44:56.128Z,1.40
2022-11-01T09:47:28.075Z,2.90
2022-11-01T09:50:12.711Z,2.47
2022-11-01T09:52:41.348Z,1.75
2022-11-01T09:55:17.629Z,2.35
2022-11-01T09:57:57.305Z,2.92
2022-11-01T10:00:25.320Z,2.45
2022-11-01T10:02:53.664Z,2.00
2022-11-01T10:05:30.362Z,1.92
2022-11-01T10:08:27.285Z,2.22
2022-11-01T10:10:57.664Z,2.40
2022-11-01T10:13:41.276Z,2.45
2022-11-01T10:16:28.154Z,2.25
2022-11-01T10:19:18.271Z,2.70
2022-11-01T10:21:50.844Z,2.25
2022-11-01T10:24:31.910Z,2.42
2022-11-01T10:27:14.144Z,2.10
2022-11-01T10:29:59.180Z,2.20
2022-11-01T10:32:34.099Z,1.88
2022-11-01T10:35:06.868Z,2.80
2022-11-01T10:37:57.407Z,2.38
2022-11-01T10:40:46.330Z,2.58
2022-11-01T10:43:16.706Z,3.67
2022-11-01T10:45:47.700Z,2.42
2022-11-01T10:48:38.461Z,2.10
2022-11-01T10:51:09.108Z,3.08
2022-11-01T10:53:58.674Z,2.47
2022-11-01T10:56:41.918Z,2.45
2022-11-01T10:59:30.365Z,3.83
2022-11-01T11:02:00.336Z,2.92
2022-11-01T11:04:28.822Z,1.95
2022-11-01T11:06:56.918Z,2.10
2022-11-01T11:09:36.043Z,3.80
2022-11-01T11:12:12.339Z,3.00
2022-11-01T11:14:41.277Z,2.55
2022-11-01T11:17:31.387Z,2.45
2022-11-01T11:20:07.496Z,3.00
2022-11-01T11:22:41.142Z,2.95
2022-11-01T11:25:17.634Z,2.15
2022-11-01T11:27:48.632Z,2.60
2022-11-01T11:30:36.964Z,2.40
2022-11-01T11:33:04.721Z,3.08
2022-11-01T11:35:33.692Z,2.38
2022-11-01T11:38:04.815Z,2.20
2022-11-01T11:43:33.127Z,2.58
2022-11-01T11:46:10.468Z,3.55
2022-11-01T11:48:50.041Z,3.38
2022-11-01T11:51:18.288Z,2.35
2022-11-01T11:54:05.124Z,3.22
2022-11-01T11:56:33.152Z,2.88
2022-11-01T11:59:08.734Z,3.15
2022-11-01T12:01:36.918Z,2.40
2022-11-01T12:04:19.182Z,2.15
2022-11-01T12:06:47.001Z,2.50
2022-11-01T12:09:44.337Z,2.10
2022-11-01T12:12:32.774Z,2.67
2022-11-01T12:15:03.092Z,2.00
2022-11-01T12:17:33.751Z,2.50
2022-11-01T12:20:17.015Z,2.33
2022-11-01T12:23:11.036Z,3.47
2022-11-01T12:25:41.490Z,2.50
2022-11-01T12:28:35.584Z,3.10
2022-11-01T12:31:12.588Z,4.18
2022-11-01T12:33:59.900Z,3.08
2022-11-01T12:36:58.983Z,3.60
2022-11-01T12:39:36.661Z,4.07
2022-11-01T12:42:05.170Z,3.13
2022-11-01T12:44:42.957Z,2.83
2022-11-01T12:47:36.097Z,3.50
2022-11-01T12:50:18.816Z,3.53
2022-11-01T12:53:08.389Z,2.75
2022-11-01T12:55:40.882Z,2.45
2022-11-01T12:58:20.430Z,2.35
2022-11-01T13:00:56.715Z,2.90
2022-11-01T13:03:37.919Z,2.63
2022-11-01T13:06:12.539Z,2.50
2022-11-01T13:08:49.014Z,1.88
2022-11-01T13:11:40.049Z,2.78
2022-11-01T13:14:16.505Z,2.10
2022-11-01T13:16:52.718Z,2.10
2022-11-01T13:19:34.206Z,2.25
2022-11-01T13:22:24.426Z,2.45
2022-11-01T13:25:23.268Z,3.30
2022-11-01T13:28:02.497Z,1.92
2022-11-01T13:30:33.470Z,1.70
2022-11-01T13:33:50.444Z,2.00
2022-11-01T13:36:31.595Z,2.13
2022-11-01T13:38:59.553Z,2.08
2022-11-01T13:41:49.857Z,2.10
2022-11-01T13:44:25.431Z,1.80
2022-11-01T13:47:08.261Z,2.28
2022-11-01T13:49:35.786Z,1.70
2022-11-01T13:52:17.319Z,2.67
2022-11-01T13:54:47.817Z,1.73
2022-11-01T13:57:16.761Z,1.40
2022-11-01T13:59:55.432Z,1.33
2022-11-01T14:02:26.475Z,1.45
2022-11-01T14:05:12.687Z,1.45
2022-11-01T14:07:45.937Z,1.52
2022-11-01T14:10:20.068Z,1.50
2022-11-01T14:13:07.501Z,1.70
2022-11-01T14:15:39.682Z,1.15
2022-11-01T14:18:07.586Z,1.17
2022-11-01T14:20:43.993Z,1.10
2022-11-01T14:23:29.174Z,1.33
2022-11-01T14:26:15.792Z,1.75
2022-11-01T14:28:44.584Z,1.58
2022-11-01T14:31:13.902Z,1.73
2022-11-01T14:33:42.485Z,1.83
2022-11-01T14:36:13.033Z,1.50
2022-11-01T14:38:55.254Z,1.67
2022-11-01T14:41:26.463Z,2.05
2022-11-01T14:46:45.615Z,1.60
2022-11-01T14:49:41.468Z,2.20
2022-11-01T14:52:16.030Z,2.03
2022-11-01T14:54:49.585Z,8.43
2022-11-01T14:57:32.154Z,5.43
2022-11-01T15:00:17.960Z,2.38
2022-11-01T15:02:45.800Z,1.88
2022-11-01T15:05:15.053Z,2.70
2022-11-01T15:07:43.528Z,2.40
2022-11-01T15:10:14.729Z,3.28
2022-11-01T15:12:54.088Z,2.75
2022-11-01T15:15:23.989Z,4.57
2022-11-01T15:17:59.170Z,5.15
2022-11-01T15:20:29.394Z,2.60
2022-11-01T15:22:59.017Z,2.63
2022-11-01T15:25:27.045Z,2.20
2022-11-01T15:27:55.498Z,3.30
2022-11-01T15:30:34.293Z,2.50
2022-11-01T15:33:18.913Z,2.15
2022-11-01T15:35:54.358Z,2.55
2022-11-01T15:38:22.178Z,2.20
2022-11-01T15:40:53.262Z,2.13
2022-11-01T15:43:26.907Z,2.22
2022-11-01T15:45:58.990Z,2.30
2022-11-01T15:51:01.628Z,1.90
2022-11-01T15:53:31.819Z,2.95
2022-11-01T15:56:09.121Z,7.95
2022-11-01T15:58:40.748Z,7.30
2022-11-01T16:01:13.176Z,5.05
2022-11-01T16:03:45.528Z,3.25
2022-11-01T16:06:26.329Z,2.47
2022-11-01T16:09:22.301Z,2.80
2022-11-01T16:11:49.917Z,2.40
2022-11-01T16:14:25.709Z,2.80
2022-11-01T16:17:00.716Z,2.05
2022-11-01T16:19:48.454Z,2.30
2022-11-01T16:22:26.809Z,2.15
2022-11-01T16:25:22.036Z,2.22
2022-11-01T16:28:05.996Z,1.77
2022-11-01T16:30:51.032Z,1.92
2022-11-01T16:33:23.713Z,1.58
2022-11-01T16:36:20.500Z,1.67
2022-11-01T16:38:52.220Z,1.60
2022-11-01T16:43:53.981Z,1.33
2022-11-01T16:46:22.432Z,1.45
2022-11-01T16:48:55.399Z,1.42
2022-11-01T16:51:26.893Z,1.98
2022-11-01T16:53:56.119Z,1.65
2022-11-01T16:56:36.576Z,1.60
2022-11-01T16:59:07.076Z,1.52
2022-11-01T17:01:35.981Z,1.70
2022-11-01T17:04:04.808Z,2.13
2022-11-01T17:06:36.159Z,2.42
2022-11-01T17:09:11.317Z,3.50
2022-11-01T17:11:39.198Z,4.15
2022-11-01T17:14:07.078Z,3.40
2022-11-01T17:16:35.053Z,3.17
2022-11-01T17:19:03.713Z,2.95
2022-11-01T17:21:36.466Z,3.13
2022-11-01T17:24:04.860Z,3.00
2022-11-01T17:26:34.625Z,2.13
2022-11-01T17:29:02.753Z,3.03
2022-11-01T17:31:30.763Z,2.03
2022-11-01T17:33:59.171Z,2.28
2022-11-01T17:36:27.850Z,2.00
2022-11-01T17:38:56.068Z,2.80
2022-11-01T17:41:24.069Z,1.77
2022-11-01T17:43:51.483Z,1.90
2022-11-01T17:46:20.990Z,2.25
2022-11-01T17:48:49.327Z,1.60
2022-11-01T17:51:18.060Z,1.55
2022-11-01T17:53:46.074Z,1.50
2022-11-01T17:56:13.886Z,1.58
2022-11-01T17:58:44.072Z,1.95
2022-11-01T18:01:13.986Z,2.03
2022-11-01T18:03:41.975Z,1.67
2022-11-01T18:06:10.322Z,2.38
2022-11-01T18:08:44.118Z,1.88
2022-11-01T18:11:28.904Z,2.90
2022-11-01T18:14:05.338Z,2.20
2022-11-01T18:16:45.279Z,1.70
2022-11-01T18:19:24.188Z,1.90
2022-11-01T18:22:14.830Z,1.90
2022-11-01T18:24:45.683Z,3.53
2022-11-01T18:27:14.046Z,1.70
2022-11-01T18:29:46.062Z,1.73
2022-11-01T18:32:34.938Z,1.65
2022-11-01T18:35:02.952Z,2.20
2022-11-01T18:37:44.812Z,2.17
2022-11-01T18:42:47.484Z,1.90
2022-11-01T18:45:25.557Z,2.17
2022-11-01T18:48:36.343Z,1.80
2022-11-01T18:51:13.971Z,2.75
2022-11-01T18:53:41.860Z,1.67
2022-11-01T18:56:15.146Z,1.50
2022-11-01T18:58:43.108Z,1.60
2022-11-01T19:01:14.584Z,1.63
2022-11-01T19:06:22.118Z,1.80
2022-11-01T19:08:55.991Z,1.50
2022-11-01T19:11:26.461Z,1.50
2022-11-01T19:13:58.066Z,1.55
2022-11-01T19:18:53.792Z,1.48
2022-11-01T19:21:22.523Z,1.50
2022-11-01T19:23:53.976Z,1.95
2022-11-01T19:26:31.900Z,2.00
2022-11-01T19:28:59.852Z,2.33
2022-11-01T19:31:37.150Z,2.13
2022-11-01T19:34:12.553Z,3.70
2022-11-01T19:36:44.484Z,2.50
2022-11-01T19:39:37.031Z,2.22
2022-11-01T19:42:21.147Z,2.78
2022-11-01T19:44:48.693Z,2.20
2022-11-01T19:47:28.870Z,2.08
2022-11-01T19:49:56.389Z,2.00
2022-11-01T19:52:37.782Z,1.92
2022-11-01T19:55:36.324Z,1.73
2022-11-01T19:58:25.225Z,2.10
2022-11-01T20:01:03.681Z,2.50
2022-11-01T20:03:39.775Z,2.22
2022-11-01T20:06:21.549Z,2.22
2022-11-01T20:11:21.784Z,2.58
2022-11-01T20:13:49.757Z,2.30
2022-11-01T20:16:18.050Z,2.17
2022-11-01T20:18:45.574Z,2.80
2022-11-01T20:21:13.605Z,2.50
2022-11-01T20:23:41.482Z,3.20
2022-11-01T20:26:09.083Z,3.08
2022-11-01T20:28:36.755Z,2.80
2022-11-01T20:31:05.352Z,2.80
2022-11-01T20:33:33.402Z,2.85
2022-11-01T20:36:00.881Z,2.60
2022-11-01T20:38:28.792Z,2.53
2022-11-01T20:40:56.318Z,1.67
2022-11-01T20:43:24.129Z,2.03
2022-11-01T20:45:52.195Z,1.70
2022-11-01T20:48:20.084Z,1.90
2022-11-01T20:50:48.279Z,2.08
2022-11-01T20:53:16.029Z,1.73
2022-11-01T20:55:44.404Z,1.48
2022-11-01T20:58:12.190Z,1.55
2022-11-01T21:00:40.044Z,1.15
2022-11-01T21:03:15.863Z,1.67
2022-11-01T21:05:45.873Z,1.67
2022-11-01T21:08:25.223Z,1.77
2022-11-01T21:11:02.712Z,1.73
2022-11-01T21:13:35.999Z,1.88
2022-11-01T21:16:08.181Z,1.67
2022-11-01T21:18:40.097Z,1.52
2022-11-01T21:21:33.734Z,1.60
2022-11-01T21:24:20.350Z,1.42
2022-11-01T21:26:51.991Z,1.52
2022-11-01T21:29:30.180Z,1.70
2022-11-01T21:31:57.851Z,1.60
2022-11-01T21:34:28.236Z,1.50
2022-11-01T21:36:57.844Z,1.90
2022-11-01T21:39:33.096Z,1.38
2022-11-01T21:42:06.498Z,1.60
2022-11-01T21:44:41.929Z,1.42
2022-11-01T21:47:10.320Z,1.20
2022-11-01T21:49:38.747Z,1.75
2022-11-01T21:52:07.986Z,1.55
2022-11-01T21:54:37.320Z,1.40
2022-11-01T21:57:07.331Z,1.08
2022-11-01T21:59:35.917Z,1.30
2022-11-01T22:02:06.193Z,1.10
2022-11-01T22:04:34.340Z,1.33
2022-11-01T22:07:03.955Z,1.20
2022-11-01T22:09:32.831Z,1.40
2022-11-01T22:12:01.277Z,1.25
2022-11-01T22:14:29.016Z,1.30
2022-11-01T22:16:56.933Z,1.40
2022-11-01T22:19:24.786Z,0.85
2022-11-01T22:21:52.774Z,1.15
2022-11-01T22:24:20.354Z,1.33
2022-11-01T22:26:48.245Z,1.33
2022-11-01T22:29:16.097Z,1.27
2022-11-01T22:31:43.692Z,1.10
2022-11-01T22:34:11.683Z,1.10
2022-11-01T22:36:41.836Z,1.10
2022-11-01T22:39:23.574Z,1.42
2022-11-01T22:44:27.469Z,1.40
2022-11-01T22:46:58.928Z,2.30
2022-11-01T22:52:21.929Z,2.22
2022-11-01T22:54:53.488Z,1.10
2022-11-01T22:57:23.446Z,1.05
2022-11-01T22:59:56.446Z,0.80
2022-11-01T23:02:35.119Z,1.20
2022-11-01T23:05:03.145Z,1.20
2022-11-01T23:07:53.679Z,1.55
2022-11-01T23:10:29.276Z,1.17
2022-11-01T23:13:26.380Z,1.02
2022-11-01T23:15:56.562Z,0.95
2022-11-01T23:18:27.828Z,1.50
2022-11-01T23:20:57.730Z,0.90
2022-11-01T23:23:25.595Z,1.10
2022-11-01T23:25:55.270Z,1.13
2022-11-01T23:28:24.515Z,1.10
2022-11-01T23:30:52.405Z,1.00
2022-11-01T23:33:21.610Z,1.20
2022-11-01T23:35:58.124Z,1.10
2022-11-01T23:38:37.231Z,1.02
2022-11-01T23:41:05.353Z,1.20
2022-11-01T23:43:41.217Z,1.73
2022-11-01T23:46:10.861Z,1.13
2022-11-01T23:48:43.179Z,1.20
2022-11-01T23:51:15.281Z,1.20
2022-11-01T23:53:43.802Z,1.45
2022-11-01T23:56:13.088Z,1.10
2022-11-01T23:58:40.602Z,1.45
